Time;durP1;ratioP1;P1;durP2;ratioP2;P2;SDS_P1;SDS_P2;PMS_P1;PMS_P2;Temp;Humidity;BMP_temperature;BMP_pressure;BME280_temperature;BME280_humidity;BME280_pressure;Samples;Min_cycle;Max_cycle;Signal;HPM_P1;HPM_P2
2022/07/21 00:01:23;;;;;;;;;;;;;;;28.34;32.33;101395.25;5020449;28;19922;-56
2022/07/21 00:03:48;;;;;;;;;;;;;;;28.33;32.34;101385.47;5021220;28;19921;-54
2022/07/21 00:06:14;;;;;;;;;;;;;;;28.30;32.08;101391.25;5023341;28;19920;-53
2022/07/21 00:08:39;;;;;;;;;;;;;;;28.25;32.41;101389.13;5021151;28;19916;-54
2022/07/21 00:11:04;;;;;;;;;;;;;;;28.20;32.57;101377.19;5020049;28;19924;-56
2022/07/21 00:13:30;;;;;;;;;;;;;;;28.17;32.36;101381.13;5019556;28;19924;-56
2022/07/21 00:15:56;;;;;;;;;;;;;;;28.13;32.67;101379.81;5021890;28;20007;-56
2022/07/21 00:18:21;;;;;;;;;;;;;;;28.08;32.70;101374.97;5025298;28;19958;-58
2022/07/21 00:20:47;;;;;;;;;;;;;;;28.06;32.73;101378.88;5020877;28;19909;-57
2022/07/21 00:23:12;;;;;;;;;;;;;;;28.03;32.46;101379.25;5025726;28;19936;-56
2022/07/21 00:25:37;;;;;;;;;;;;;;;27.98;32.90;101375.25;5021201;28;19964;-55
2022/07/21 00:28:03;;;;;;;;;;;;;;;27.97;32.93;101376.28;5020790;28;19916;-57
2022/07/21 00:30:29;;;;;;;;;;;;;;;27.96;32.73;101376.47;5023580;28;19919;-56
2022/07/21 00:32:54;;;;;;;;;;;;;;;27.94;32.86;101370.41;5026512;28;20334;-56
2022/07/21 00:35:19;;;;;;;;;;;;;;;27.92;33.09;101373.28;5022486;28;19931;-54
2022/07/21 00:37:45;;;;;;;;;;;;;;;27.90;32.83;101369.09;5024274;28;19920;-56
2022/07/21 00:40:11;;;;;;;;;;;;;;;27.91;33.12;101368.91;5008965;28;19921;-56
2022/07/21 00:42:36;;;;;;;;;;;;;;;27.92;33.03;101359.75;5027799;28;19917;-56
2022/07/21 00:45:03;;;;;;;;;;;;;;;27.94;33.04;101365.81;5029531;28;20023;-54
2022/07/21 00:47:29;;;;;;;;;;;;;;;27.95;33.16;101362.09;5033385;28;19913;-56
2022/07/21 00:49:56;;;;;;;;;;;;;;;27.96;33.02;101365.66;5026490;28;19924;-59
2022/07/21 00:52:21;;;;;;;;;;;;;;;27.97;32.99;101365.47;5027656;28;19915;-59
2022/07/21 00:54:47;;;;;;;;;;;;;;;27.95;33.04;101362.09;5031337;28;19913;-55
2022/07/21 00:57:13;;;;;;;;;;;;;;;27.94;33.02;101360.41;5033404;28;19948;-56
2022/07/21 00:59:39;;;;;;;;;;;;;;;27.93;32.98;101361.44;5028968;28;19924;-57
2022/07/21 01:02:05;;;;;;;;;;;;;;;27.91;33.11;101363.50;5028410;28;19944;-55
2022/07/21 01:04:30;;;;;;;;;;;;;;;27.89;32.86;101362.88;5030615;28;19963;-55
2022/07/21 01:06:56;;;;;;;;;;;;;;;27.89;32.81;101360.16;5027237;28;19967;-56
2022/07/21 01:09:22;;;;;;;;;;;;;;;27.89;32.90;101354.75;5031175;28;19959;-55
2022/07/21 01:11:47;;;;;;;;;;;;;;;27.87;32.85;101354.09;5027322;28;19917;-55
2022/07/21 01:14:13;;;;;;;;;;;;;;;27.88;32.80;101350.38;5032818;28;19913;-56
2022/07/21 01:16:39;;;;;;;;;;;;;;;27.89;33.05;101356.59;5031576;28;19916;-55
2022/07/21 01:19:05;;;;;;;;;;;;;;;27.89;32.92;101351.19;5028841;28;19939;-53
2022/07/21 01:21:31;;;;;;;;;;;;;;;27.87;33.06;101350.53;5029121;28;19913;-55
2022/07/21 01:23:59;;;;;;;;;;;;;;;27.85;32.95;101345.34;5023827;28;19964;-52
2022/07/21 01:26:25;;;;;;;;;;;;;;;27.84;32.96;101338.25;5026688;28;19948;-52
2022/07/21 01:28:50;;;;;;;;;;;;;;;27.81;33.01;101334.06;5032340;28;19951;-59
2022/07/21 01:31:16;;;;;;;;;;;;;;;27.79;32.85;101329.84;5024106;28;19924;-55
2022/07/21 01:33:41;;;;;;;;;;;;;;;27.77;32.90;101323.81;5026896;28;19955;-52
2022/07/21 01:36:07;;;;;;;;;;;;;;;27.76;32.92;101319.41;5036758;28;20337;-56
2022/07/21 01:41:32;;;;;;;;;;;;;;;27.69;33.01;101313.94;5025090;28;19970;-57
2022/07/21 01:43:59;;;;;;;;;;;;;;;27.64;33.22;101310.97;5021342;28;20392;-54
2022/07/21 01:46:24;;;;;;;;;;;;;;;27.61;33.40;101304.06;5024052;28;20427;-56
2022/07/21 01:48:50;;;;;;;;;;;;;;;27.61;33.30;101305.94;5021173;28;20008;-55
2022/07/21 01:51:15;;;;;;;;;;;;;;;27.58;33.44;101301.75;5030955;28;19913;-56
2022/07/21 01:53:40;;;;;;;;;;;;;;;27.54;33.48;101300.44;5022588;28;19917;-55
2022/07/21 01:56:06;;;;;;;;;;;;;;;27.50;33.34;101300.00;5021969;28;19917;-53
2022/07/21 01:58:32;;;;;;;;;;;;;;;27.50;33.77;101299.13;5029971;28;20327;-59
2022/07/21 02:00:57;;;;;;;;;;;;;;;27.50;33.53;101315.34;5026143;28;19978;-56
2022/07/21 02:03:23;;;;;;;;;;;;;;;27.48;33.71;101307.44;5025423;28;19960;-59
2022/07/21 02:05:48;;;;;;;;;;;;;;;27.45;33.73;101306.97;5026274;28;20000;-58
2022/07/21 02:08:13;;;;;;;;;;;;;;;27.46;33.75;101309.50;5025397;28;19921;-55
2022/07/21 02:10:39;;;;;;;;;;;;;;;27.45;33.90;101301.56;5021619;28;19959;-57
2022/07/21 02:13:04;;;;;;;;;;;;;;;27.43;33.82;101298.19;5028775;28;19909;-55
2022/07/21 02:15:30;;;;;;;;;;;;;;;27.36;34.20;101304.34;5022317;28;20351;-56
2022/07/21 02:17:55;;;;;;;;;;;;;;;27.30;34.34;101304.25;5027833;28;19917;-56
2022/07/21 02:20:21;;;;;;;;;;;;;;;27.23;34.43;101304.16;5020803;28;19913;-55
2022/07/21 02:22:47;;;;;;;;;;;;;;;27.19;34.59;101310.94;5028726;28;20391;-56
2022/07/21 02:25:13;;;;;;;;;;;;;;;27.12;34.52;101302.75;5026259;28;19957;-55
2022/07/21 02:27:39;;;;;;;;;;;;;;;27.07;34.50;101318.69;5026509;28;20006;-53
2022/07/21 02:30:04;;;;;;;;;;;;;;;27.02;34.67;101307.56;5026639;28;19963;-56
2022/07/21 02:32:30;;;;;;;;;;;;;;;26.97;34.69;101307.28;5028069;28;19913;-58
2022/07/21 02:34:55;;;;;;;;;;;;;;;26.95;34.62;101306.63;5026793;28;19913;-55
2022/07/21 02:37:21;;;;;;;;;;;;;;;26.92;34.69;101302.44;5029604;28;19913;-57
2022/07/21 02:39:46;;;;;;;;;;;;;;;26.89;34.77;101292.84;5024664;28;19908;-57
2022/07/21 02:42:12;;;;;;;;;;;;;;;26.86;34.99;101292.34;5025378;28;19952;-56
2022/07/21 02:44:37;;;;;;;;;;;;;;;26.83;35.06;101298.16;5021217;28;20372;-55
2022/07/21 02:47:03;;;;;;;;;;;;;;;26.77;35.10;101284.31;5029692;28;19924;-57
2022/07/21 02:49:28;;;;;;;;;;;;;;;26.77;34.96;101283.50;5026797;28;19921;-56
2022/07/21 02:51:54;;;;;;;;;;;;;;;26.73;35.13;101276.78;5026580;28;19935;-54
2022/07/21 02:54:19;;;;;;;;;;;;;;;26.69;35.51;101279.00;5024244;28;19925;-57
2022/07/21 02:56:44;;;;;;;;;;;;;;;26.66;35.41;101276.66;5025420;28;19917;-58
2022/07/21 02:59:10;;;;;;;;;;;;;;;26.67;35.52;101277.50;5030772;28;20376;-57
2022/07/21 03:01:35;;;;;;;;;;;;;;;26.69;35.29;101275.47;5027620;28;20447;-57
2022/07/21 03:04:00;;;;;;;;;;;;;;;26.68;35.45;101282.72;5026641;28;20327;-56
2022/07/21 03:06:26;;;;;;;;;;;;;;;26.71;35.43;101289.63;5023849;28;20102;-59
2022/07/21 03:08:51;;;;;;;;;;;;;;;26.71;35.38;101285.03;5028719;28;19913;-55
2022/07/21 03:11:16;;;;;;;;;;;;;;;26.71;35.26;101287.75;5029883;28;20000;-54
2022/07/21 03:13:41;;;;;;;;;;;;;;;26.68;35.49;101280.03;5027497;28;20340;-54
2022/07/21 03:16:07;;;;;;;;;;;;;;;26.66;35.57;101265.88;5027888;28;19913;-57
2022/07/21 03:18:32;;;;;;;;;;;;;;;26.66;35.54;101263.19;5012599;28;19913;-55
2022/07/21 03:20:58;;;;;;;;;;;;;;;26.65;35.64;101257.94;5027208;28;19917;-55
2022/07/21 03:23:23;;;;;;;;;;;;;;;26.65;35.60;101271.44;5025596;28;19921;-55
2022/07/21 03:25:49;;;;;;;;;;;;;;;26.65;35.57;101280.38;5026729;28;19917;-57
2022/07/21 03:28:14;;;;;;;;;;;;;;;26.63;35.73;101277.03;5029053;28;19955;-55
2022/07/21 03:30:40;;;;;;;;;;;;;;;26.63;35.72;101277.03;5025809;28;19921;-56
2022/07/21 03:33:05;;;;;;;;;;;;;;;26.65;35.64;101274.13;5025691;28;20288;-56
2022/07/21 03:35:31;;;;;;;;;;;;;;;26.65;35.60;101272.28;5025918;28;19916;-55
2022/07/21 03:37:57;;;;;;;;;;;;;;;26.66;35.59;101273.97;5026823;28;19909;-56
2022/07/21 03:40:24;;;;;;;;;;;;;;;26.68;35.56;101282.72;5026564;28;19975;-53
2022/07/21 03:42:50;;;;;;;;;;;;;;;26.71;35.65;101285.03;5026787;28;19919;-55
2022/07/21 03:45:15;;;;;;;;;;;;;;;26.74;35.51;101283.84;5026063;28;20354;-57
2022/07/21 03:47:41;;;;;;;;;;;;;;;26.74;35.62;101276.59;5025774;28;19909;-55
2022/07/21 03:50:06;;;;;;;;;;;;;;;26.77;35.62;101272.69;5021275;28;19927;-54
2022/07/21 03:52:32;;;;;;;;;;;;;;;26.78;35.74;101264.41;5021406;28;19919;-53
2022/07/21 03:55:09;;;;;;;;;;;;;;;26.78;35.49;101267.09;5022425;28;19935;-56
2022/07/21 03:57:39;;;;;;;;;;;;;;;26.82;35.53;101280.28;5025205;28;19917;-55
2022/07/21 04:00:06;;;;;;;;;;;;;;;26.83;35.67;101290.06;5025741;28;19917;-55
2022/07/21 04:02:31;;;;;;;;;;;;;;;26.84;35.53;101289.84;5018620;28;19910;-55
2022/07/21 04:04:57;;;;;;;;;;;;;;;26.86;35.62;101277.03;5028718;28;19921;-53
2022/07/21 04:07:22;;;;;;;;;;;;;;;26.92;35.29;101275.44;5025329;28;19975;-53
2022/07/21 04:09:47;;;;;;;;;;;;;;;26.98;35.38;101274.72;5025518;28;20003;-52
2022/07/21 04:12:12;;;;;;;;;;;;;;;27.04;35.34;101282.06;5032070;28;19913;-53
2022/07/21 04:14:38;;;;;;;;;;;;;;;27.08;35.07;101286.06;5008779;28;19999;-55
2022/07/21 04:17:03;;;;;;;;;;;;;;;27.15;35.40;101285.34;5025197;28;19924;-56
2022/07/21 04:19:28;;;;;;;;;;;;;;;27.19;34.89;101289.31;5023879;28;19919;-55
2022/07/21 04:21:54;;;;;;;;;;;;;;;27.23;34.92;101287.94;5029148;28;19917;-56
2022/07/21 04:24:19;;;;;;;;;;;;;;;27.26;34.83;101279.47;5024863;28;19921;-56
2022/07/21 04:26:44;;;;;;;;;;;;;;;27.30;34.89;101272.66;5028708;28;19953;-53
2022/07/21 04:29:10;;;;;;;;;;;;;;;27.33;34.61;101285.78;5024841;28;20320;-56
2022/07/21 04:31:35;;;;;;;;;;;;;;;27.38;34.51;101269.88;5023012;28;20376;-54
2022/07/21 04:34:00;;;;;;;;;;;;;;;27.42;34.54;101266.78;5030229;28;19914;-58
2022/07/21 04:36:26;;;;;;;;;;;;;;;27.46;34.50;101276.22;5031672;28;20003;-57
2022/07/21 04:38:51;;;;;;;;;;;;;;;27.47;34.52;101269.78;5026250;28;19925;-56
2022/07/21 04:41:16;;;;;;;;;;;;;;;27.51;34.70;101262.97;5030603;28;20013;-56
2022/07/21 04:43:42;;;;;;;;;;;;;;;27.54;34.50;101268.00;5028080;28;19921;-56
2022/07/21 04:46:07;;;;;;;;;;;;;;;27.56;34.58;101271.38;5030403;28;20030;-55
2022/07/21 04:48:32;;;;;;;;;;;;;;;27.58;34.41;101266.63;5021174;28;20003;-57
2022/07/21 04:50:58;;;;;;;;;;;;;;;27.59;34.63;101257.50;5022742;28;20060;-54
2022/07/21 04:53:23;;;;;;;;;;;;;;;27.59;34.66;101260.19;5026684;28;19916;-56
2022/07/21 04:55:49;;;;;;;;;;;;;;;27.61;34.57;101263.53;5022945;28;20434;-57
2022/07/21 04:58:15;;;;;;;;;;;;;;;27.62;34.56;101273.31;5023823;28;19913;-57
2022/07/21 05:00:40;;;;;;;;;;;;;;;27.64;34.68;101275.84;5026066;28;20368;-53
2022/07/21 05:03:06;;;;;;;;;;;;;;;27.65;34.60;101264.81;5024644;28;20030;-53
2022/07/21 05:05:31;;;;;;;;;;;;;;;27.64;34.83;101265.03;5024103;28;19919;-53
2022/07/21 05:07:56;;;;;;;;;;;;;;;27.66;34.77;101271.09;5023722;28;19924;-55
2022/07/21 05:10:23;;;;;;;;;;;;;;;27.64;34.94;101279.38;5026634;28;20020;-53
2022/07/21 05:12:48;;;;;;;;;;;;;;;27.63;34.66;101266.06;5029353;28;19925;-54
2022/07/21 05:15:14;;;;;;;;;;;;;;;27.62;34.74;101281.41;5028126;28;19912;-53
2022/07/21 05:17:40;;;;;;;;;;;;;;;27.62;34.90;101284.13;5025490;28;19956;-53
2022/07/21 05:20:05;;;;;;;;;;;;;;;27.60;34.66;101288.91;5027843;28;19941;-55
2022/07/21 05:22:31;;;;;;;;;;;;;;;27.60;34.83;101285.34;5025535;28;20007;-54
2022/07/21 05:24:56;;;;;;;;;;;;;;;27.59;34.88;101292.63;5030880;28;19948;-57
2022/07/21 05:27:22;;;;;;;;;;;;;;;27.58;34.80;101282.84;5023415;28;20519;-53
2022/07/21 05:29:47;;;;;;;;;;;;;;;27.57;34.99;101286.56;5026631;28;19995;-52
2022/07/21 05:32:12;;;;;;;;;;;;;;;27.58;35.01;101292.78;5026575;28;19917;-53
2022/07/21 05:34:38;;;;;;;;;;;;;;;27.58;34.88;101290.94;5028704;28;19939;-53
2022/07/21 05:37:03;;;;;;;;;;;;;;;27.59;34.93;101284.53;5024482;28;19909;-55
2022/07/21 05:39:29;;;;;;;;;;;;;;;27.60;34.92;101294.31;5023663;28;19963;-53
2022/07/21 05:41:54;;;;;;;;;;;;;;;27.60;34.89;101288.91;5026674;28;19955;-54
2022/07/21 05:44:22;;;;;;;;;;;;;;;27.60;35.17;101288.91;5031334;28;19932;-53
2022/07/21 05:46:47;;;;;;;;;;;;;;;27.61;35.14;101284.31;5027262;28;19913;-53
2022/07/21 05:49:13;;;;;;;;;;;;;;;27.61;34.95;101285.13;5023693;28;19967;-52
2022/07/21 05:51:38;;;;;;;;;;;;;;;27.62;34.94;101289.53;5024720;28;19917;-53
2022/07/21 05:54:03;;;;;;;;;;;;;;;27.63;34.90;101288.50;5022148;28;20372;-52
2022/07/21 05:56:29;;;;;;;;;;;;;;;27.65;34.83;101283.75;5023217;28;20277;-54
2022/07/21 05:58:54;;;;;;;;;;;;;;;27.67;34.75;101292.50;5024761;28;20023;-53
2022/07/21 06:01:19;;;;;;;;;;;;;;;27.68;34.82;101294.19;5028722;28;19968;-55
2022/07/21 06:03:46;;;;;;;;;;;;;;;27.69;34.64;101293.16;5012450;28;19916;-54
2022/07/21 06:06:13;;;;;;;;;;;;;;;27.72;34.86;101296.50;5023069;28;20299;-53
2022/07/21 06:08:39;;;;;;;;;;;;;;;27.74;34.90;101294.47;5027207;28;20297;-53
2022/07/21 06:11:04;;;;;;;;;;;;;;;27.75;34.93;101301.56;5029091;28;19925;-52
2022/07/21 06:13:30;;;;;;;;;;;;;;;27.76;34.58;101298.66;5024681;28;19919;-56
2022/07/21 06:15:55;;;;;;;;;;;;;;;27.77;34.67;101300.31;5011208;28;19950;-54
2022/07/21 06:18:21;;;;;;;;;;;;;;;27.80;34.84;101302.66;5030980;28;19909;-53
2022/07/21 06:20:46;;;;;;;;;;;;;;;27.83;34.76;101301.44;5022265;28;19913;-52
2022/07/21 06:23:11;;;;;;;;;;;;;;;27.84;35.07;101295.00;5030172;28;19908;-52
2022/07/21 06:25:36;;;;;;;;;;;;;;;27.86;35.12;101301.06;5028549;28;19920;-53
2022/07/21 06:28:02;;;;;;;;;;;;;;;27.87;35.12;101289.22;5025469;28;19926;-52
2022/07/21 06:30:27;;;;;;;;;;;;;;;27.90;34.82;101282.56;5022352;28;19921;-53
2022/07/21 06:32:53;;;;;;;;;;;;;;;27.91;34.85;101273.44;5024162;28;20411;-54
2022/07/21 06:35:18;;;;;;;;;;;;;;;27.94;35.21;101271.19;5026840;28;20320;-53
2022/07/21 06:37:44;;;;;;;;;;;;;;;27.96;34.97;101274.53;5028915;28;19917;-52
2022/07/21 06:40:10;;;;;;;;;;;;;;;27.98;35.16;101269.78;5025215;28;19913;-52
2022/07/21 06:42:35;;;;;;;;;;;;;;;28.02;35.32;101286.44;5024518;28;19920;-53
2022/07/21 06:45:00;;;;;;;;;;;;;;;28.05;35.03;101287.94;5022740;28;20372;-54
2022/07/21 06:47:25;;;;;;;;;;;;;;;28.07;35.38;101291.28;5024438;28;19920;-52
2022/07/21 06:49:51;;;;;;;;;;;;;;;28.08;35.23;101296.50;5024208;28;20054;-52
2022/07/21 06:52:16;;;;;;;;;;;;;;;28.11;35.41;101296.16;5021238;28;19918;-52
2022/07/21 06:54:41;;;;;;;;;;;;;;;28.13;35.46;101293.25;5023971;28;19913;-52
2022/07/21 06:57:07;;;;;;;;;;;;;;;28.16;35.39;101303.69;5026528;28;19928;-51
2022/07/21 06:59:32;;;;;;;;;;;;;;;28.19;35.27;101302.47;5025617;28;19914;-55
2022/07/21 07:01:59;;;;;;;;;;;;;;;28.20;35.23;101312.25;5025154;28;20018;-53
2022/07/21 07:04:24;;;;;;;;;;;;;;;28.21;35.25;101312.06;5025645;28;20159;-53
2022/07/21 07:06:51;;;;;;;;;;;;;;;28.23;35.38;101323.53;5025663;28;19909;-56
2022/07/21 07:09:17;;;;;;;;;;;;;;;28.24;35.24;101321.69;5026111;28;19916;-54
2022/07/21 07:11:42;;;;;;;;;;;;;;;28.25;35.31;101323.34;5023147;28;19909;-54
2022/07/21 07:14:08;;;;;;;;;;;;;;;28.25;35.21;101329.59;5019831;28;19913;-53
2022/07/21 07:16:33;;;;;;;;;;;;;;;28.25;35.22;101324.19;5025745;28;20387;-51
2022/07/21 07:18:58;;;;;;;;;;;;;;;28.26;35.50;101325.03;5023836;28;19963;-53
2022/07/21 07:21:24;;;;;;;;;;;;;;;28.25;35.38;101324.19;5026100;28;19921;-52
2022/07/21 07:23:49;;;;;;;;;;;;;;;28.25;35.61;101326.88;5018220;28;19956;-52
2022/07/21 07:26:14;;;;;;;;;;;;;;;28.24;35.64;101327.91;5026616;28;19939;-52
2022/07/21 07:28:39;;;;;;;;;;;;;;;28.23;35.39;101331.66;5021580;28;19913;-53
2022/07/21 07:31:05;;;;;;;;;;;;;;;28.22;35.56;101331.84;5026352;28;20020;-53
2022/07/21 07:33:30;;;;;;;;;;;;;;;28.21;35.61;101328.28;5022262;28;19992;-52
2022/07/21 07:35:57;;;;;;;;;;;;;;;28.21;35.67;101331.00;5023463;28;19913;-53
2022/07/21 07:38:22;;;;;;;;;;;;;;;28.22;35.88;101319.16;5020048;28;19909;-54
2022/07/21 07:40:47;;;;;;;;;;;;;;;28.25;35.70;101323.34;5017934;28;19921;-54
2022/07/21 07:43:13;;;;;;;;;;;;;;;28.26;35.80;101322.31;5023306;28;20388;-54
2022/07/21 07:45:38;;;;;;;;;;;;;;;28.29;35.58;101330.91;5024948;28;20806;-52
2022/07/21 07:48:03;;;;;;;;;;;;;;;28.32;35.52;101336.97;5024001;28;19967;-55
2022/07/21 07:50:29;;;;;;;;;;;;;;;28.34;35.58;101326.78;5025018;28;19963;-53
2022/07/21 07:52:54;;;;;;;;;;;;;;;28.36;35.84;101319.31;5018451;28;19972;-54
2022/07/21 07:55:20;;;;;;;;;;;;;;;28.37;35.87;101324.53;5022017;28;20287;-52
2022/07/21 07:57:45;;;;;;;;;;;;;;;28.40;35.56;101315.16;5018988;28;20262;-52
2022/07/21 08:00:12;;;;;;;;;;;;;;;28.42;35.97;101329.34;5018752;28;20472;-53
2022/07/21 08:02:37;;;;;;;;;;;;;;;28.45;35.64;101339.78;5021401;28;19917;-54
2022/07/21 08:05:03;;;;;;;;;;;;;;;28.48;35.94;101344.81;5024666;28;19936;-55
2022/07/21 08:07:29;;;;;;;;;;;;;;;28.52;35.89;101343.38;5025744;28;20283;-57
2022/07/21 08:09:54;;;;;;;;;;;;;;;28.56;35.86;101350.09;5025215;28;19920;-54
2022/07/21 08:12:19;;;;;;;;;;;;;;;28.59;35.49;101341.59;5024109;28;20004;-54
2022/07/21 08:14:44;;;;;;;;;;;;;;;28.63;35.46;101347.44;5024223;28;19917;-56
2022/07/21 08:17:10;;;;;;;;;;;;;;;28.66;35.38;101348.94;5023679;28;19991;-54
2022/07/21 08:19:35;;;;;;;;;;;;;;;28.69;35.35;101349.38;5021003;28;19913;-53
2022/07/21 08:22:01;;;;;;;;;;;;;;;28.72;35.62;101353.56;5019506;28;19913;-53
2022/07/21 08:24:27;;;;;;;;;;;;;;;28.73;35.68;101352.56;5019644;28;19915;-54
2022/07/21 08:26:52;;;;;;;;;;;;;;;28.76;35.25;101346.78;5023895;28;20295;-52
2022/07/21 08:29:17;;;;;;;;;;;;;;;28.77;35.29;101356.56;5023393;28;20044;-53
2022/07/21 08:31:43;;;;;;;;;;;;;;;28.79;35.31;101357.22;5030327;28;19912;-55
2022/07/21 08:34:08;;;;;;;;;;;;;;;28.81;35.52;101351.59;5027328;28;19995;-54
2022/07/21 08:36:33;;;;;;;;;;;;;;;28.84;35.67;101360.16;5028403;28;20115;-53
2022/07/21 08:38:59;;;;;;;;;;;;;;;28.86;35.72;101360.81;5028558;28;19912;-55
2022/07/21 08:41:24;;;;;;;;;;;;;;;28.88;35.40;101366.03;5020400;28;19945;-56
2022/07/21 08:43:50;;;;;;;;;;;;;;;28.89;35.55;101359.59;5021865;28;19925;-54
2022/07/21 08:46:15;;;;;;;;;;;;;;;28.92;35.77;101369.19;5028186;28;19917;-57
2022/07/21 08:48:41;;;;;;;;;;;;;;;28.94;35.70;101365.25;5020838;28;19913;-55
2022/07/21 08:51:07;;;;;;;;;;;;;;;28.98;35.60;101360.25;5020117;28;19913;-53
2022/07/21 08:53:32;;;;;;;;;;;;;;;29.00;36.06;101371.75;5022629;28;20273;-54
2022/07/21 08:55:58;;;;;;;;;;;;;;;29.03;36.16;101371.34;5023393;28;20340;-55
2022/07/21 08:58:23;;;;;;;;;;;;;;;29.05;36.15;101366.59;5030771;28;19921;-54
2022/07/21 09:00:49;;;;;;;;;;;;;;;29.05;36.30;101375.53;5028401;28;19913;-54
2022/07/21 09:03:15;;;;;;;;;;;;;;;29.08;35.97;101370.75;5025716;28;19924;-54
2022/07/21 09:05:41;;;;;;;;;;;;;;;29.07;36.23;101364.53;5025342;28;19910;-55
2022/07/21 09:08:06;;;;;;;;;;;;;;;29.09;36.29;101373.28;5027337;28;20332;-53
2022/07/21 09:10:32;;;;;;;;;;;;;;;29.11;36.31;101373.94;5028769;28;19913;-53
2022/07/21 09:12:58;;;;;;;;;;;;;;;29.15;36.12;101367.06;5028501;28;20380;-54
2022/07/21 09:15:25;;;;;;;;;;;;;;;29.19;36.14;101373.78;5030548;28;20066;-53
2022/07/21 09:18:05;;;;;;;;;;;;;;;29.23;36.21;101374.22;5027547;28;20338;-53
2022/07/21 09:20:30;;;;;;;;;;;;;;;29.27;36.05;101370.06;5026449;28;20451;-51
2022/07/21 09:23:02;;;;;;;;;;;;;;;29.30;36.08;101366.13;5026140;28;20020;-53
2022/07/21 09:25:35;;;;;;;;;;;;;;;29.31;36.54;101363.22;5029038;28;19978;-55
2022/07/21 09:28:13;;;;;;;;;;;;;;;29.35;36.34;101366.41;5024492;28;19959;-56
2022/07/21 09:30:58;;;;;;;;;;;;;;;29.39;36.45;101374.97;5028775;28;19921;-53
2022/07/21 09:33:31;;;;;;;;;;;;;;;29.44;36.55;101367.09;5024668;28;19921;-55
2022/07/21 09:36:16;;;;;;;;;;;;;;;29.46;36.10;101375.88;5030774;28;19924;-56
2022/07/21 09:38:43;;;;;;;;;;;;;;;29.48;36.46;101380.03;5026179;28;19914;-55
2022/07/21 09:41:16;;;;;;;;;;;;;;;29.52;36.37;101366.91;5023997;28;19960;-54
2022/07/21 09:43:43;;;;;;;;;;;;;;;29.56;36.29;101361.97;5027533;28;19947;-55
2022/07/21 09:46:10;;;;;;;;;;;;;;;29.60;36.05;101384.91;5028458;28;20387;-53
2022/07/21 09:48:37;;;;;;;;;;;;;;;29.68;36.04;101384.75;5025994;28;19912;-53
2022/07/21 09:51:22;;;;;;;;;;;;;;;29.72;36.02;101372.47;5027854;28;19913;-54
2022/07/21 09:53:58;;;;;;;;;;;;;;;29.77;36.12;101377.28;5023988;28;19917;-52
2022/07/21 09:56:27;;;;;;;;;;;;;;;29.83;36.14;101391.91;5024358;28;19920;-53
2022/07/21 09:58:53;;;;;;;;;;;;;;;29.87;35.88;101393.19;5030191;28;19916;-53
2022/07/21 10:01:20;;;;;;;;;;;;;;;29.90;36.01;101384.63;5023492;28;19909;-53
2022/07/21 10:03:46;;;;;;;;;;;;;;;29.94;35.61;101380.47;5030063;28;19975;-52
2022/07/21 10:06:12;;;;;;;;;;;;;;;29.96;36.02;101376.53;5020919;28;19909;-57
2022/07/21 10:08:38;;;;;;;;;;;;;;;30.00;35.82;101374.28;5030252;28;19912;-54
2022/07/21 10:11:04;;;;;;;;;;;;;;;30.04;35.57;101383.66;5023822;28;19914;-54
2022/07/21 10:13:29;;;;;;;;;;;;;;;30.06;35.92;101387.03;5013916;28;19929;-54
2022/07/21 10:15:55;;;;;;;;;;;;;;;30.05;35.69;101393.47;4991571;28;19919;-53
2022/07/21 10:18:22;;;;;;;;;;;;;;;30.05;35.98;101388.06;5026503;28;19967;-54
2022/07/21 10:20:50;;;;;;;;;;;;;;;30.07;35.90;101385.97;5026785;28;19914;-52
2022/07/21 10:23:28;;;;;;;;;;;;;;;30.09;35.50;101408.31;5030184;28;19913;-53
2022/07/21 10:25:53;;;;;;;;;;;;;;;30.10;35.72;101382.88;5027086;28;19909;-53
2022/07/21 10:28:27;;;;;;;;;;;;;;;30.10;35.68;101387.47;5023044;28;20012;-54
2022/07/21 10:30:56;;;;;;;;;;;;;;;30.11;35.51;101384.53;5027359;28;19920;-55
2022/07/21 10:33:41;;;;;;;;;;;;;;;30.14;35.58;101399.56;5027206;28;19924;-54
2022/07/21 10:36:07;;;;;;;;;;;;;;;30.19;35.50;101398.97;5028223;28;19992;-53
2022/07/21 10:38:33;;;;;;;;;;;;;;;30.21;35.55;101405.03;5029677;28;20000;-53
2022/07/21 10:40:59;;;;;;;;;;;;;;;30.25;35.31;101398.97;5023273;28;19913;-54
2022/07/21 10:43:24;;;;;;;;;;;;;;;30.26;35.15;101407.97;5027939;28;19928;-57
2022/07/21 10:45:50;;;;;;;;;;;;;;;30.27;35.09;101406.94;5027740;28;19917;-54
2022/07/21 10:48:34;;;;;;;;;;;;;;;30.26;35.17;101411.50;5028293;28;20343;-55
2022/07/21 10:50:59;;;;;;;;;;;;;;;30.25;35.10;101417.97;5027855;28;19928;-60
2022/07/21 10:53:24;;;;;;;;;;;;;;;30.23;34.65;101427.38;5027468;28;19917;-55
2022/07/21 10:55:54;;;;;;;;;;;;;;;30.21;35.16;101427.59;5016601;28;19921;-54
2022/07/21 10:58:28;;;;;;;;;;;;;;;30.23;34.77;101435.50;5024766;28;19928;-53
2022/07/21 11:01:12;;;;;;;;;;;;;;;30.24;35.01;101429.91;5030128;28;19963;-55
2022/07/21 11:03:39;;;;;;;;;;;;;;;30.26;34.79;101426.97;5026802;28;19924;-55
2022/07/21 11:06:23;;;;;;;;;;;;;;;30.30;34.67;101430.97;5026783;28;19960;-55
2022/07/21 11:08:53;;;;;;;;;;;;;;;30.36;34.52;101432.84;5023859;28;19916;-52
2022/07/21 11:11:26;;;;;;;;;;;;;;;30.41;34.91;101440.38;5022042;28;19917;-53
2022/07/21 11:14:04;;;;;;;;;;;;;;;30.42;34.37;101437.47;5009389;28;19911;-53
2022/07/21 11:16:42;;;;;;;;;;;;;;;30.45;34.50;101438.09;5015527;28;19909;-52
2022/07/21 11:19:26;;;;;;;;;;;;;;;30.46;34.33;101451.47;5026498;28;19960;-52
2022/07/21 11:21:51;;;;;;;;;;;;;;;30.47;34.21;101441.44;5024824;28;20035;-51
2022/07/21 11:24:20;;;;;;;;;;;;;;;30.48;34.17;101441.25;5018724;28;20043;-52
2022/07/21 11:26:53;;;;;;;;;;;;;;;30.52;33.96;101442.50;5030265;28;19909;-54
2022/07/21 11:29:18;;;;;;;;;;;;;;;30.53;33.79;101443.34;5022828;28;20419;-52
2022/07/21 11:31:45;;;;;;;;;;;;;;;30.54;33.88;101440.47;5030701;28;19913;-54
2022/07/21 11:34:10;;;;;;;;;;;;;;;30.54;33.96;101447.72;5026588;28;19917;-52
2022/07/21 11:36:35;;;;;;;;;;;;;;;30.52;33.72;101437.06;5025584;28;19913;-52
2022/07/21 11:39:03;;;;;;;;;;;;;;;30.50;34.11;101438.31;5025692;28;19909;-55
2022/07/21 11:41:29;;;;;;;;;;;;;;;30.49;33.67;101442.91;5023264;28;19916;-53
2022/07/21 11:43:54;;;;;;;;;;;;;;;30.49;33.78;101461.06;5024427;28;19913;-52
2022/07/21 11:46:19;;;;;;;;;;;;;;;30.51;33.79;101448.13;5021485;28;19917;-52
2022/07/21 11:48:45;;;;;;;;;;;;;;;30.51;33.61;101448.13;5034654;28;19916;-54
2022/07/21 11:51:11;;;;;;;;;;;;;;;30.51;33.74;101456.28;5031718;28;19916;-53
2022/07/21 11:53:42;;;;;;;;;;;;;;;30.51;33.50;101450.84;5025297;28;20328;-53
2022/07/21 11:56:14;;;;;;;;;;;;;;;30.52;33.54;101452.50;5028924;28;19932;-53
2022/07/21 11:58:40;;;;;;;;;;;;;;;30.49;34.10;101453.78;5024640;28;20363;-54
2022/07/21 12:01:06;;;;;;;;;;;;;;;30.51;33.61;101446.25;5024828;28;19927;-53
2022/07/21 12:03:32;;;;;;;;;;;;;;;30.51;34.22;101458.97;5026532;28;19914;-52
2022/07/21 12:05:57;;;;;;;;;;;;;;;30.50;33.72;101452.72;5024439;28;19913;-53
2022/07/21 12:08:23;;;;;;;;;;;;;;;30.50;34.31;101452.72;5023399;28;19913;-53
2022/07/21 12:10:49;;;;;;;;;;;;;;;30.51;34.15;101462.56;5020741;28;19944;-52
2022/07/21 12:13:14;;;;;;;;;;;;;;;30.51;33.90;101458.97;5022047;28;19925;-54
2022/07/21 12:15:41;;;;;;;;;;;;;;;30.53;33.73;101456.91;5029447;28;19912;-54
2022/07/21 12:18:08;;;;;;;;;;;;;;;30.53;34.07;101451.47;5023030;28;19921;-52
2022/07/21 12:20:33;;;;;;;;;;;;;;;30.53;33.89;101462.34;5024238;28;19913;-55
2022/07/21 12:23:17;;;;;;;;;;;;;;;30.53;33.83;101468.63;5021765;28;19940;-54
2022/07/21 12:25:42;;;;;;;;;;;;;;;30.53;33.76;101467.78;5029430;28;19995;-55
2022/07/21 12:28:08;;;;;;;;;;;;;;;30.54;33.64;101472.16;5024105;28;20012;-53
2022/07/21 12:30:41;;;;;;;;;;;;;;;30.51;33.91;101467.13;5027702;28;19920;-55
2022/07/21 12:33:08;;;;;;;;;;;;;;;30.50;33.64;101465.47;5031404;28;19925;-52
2022/07/21 12:35:35;;;;;;;;;;;;;;;30.47;34.12;101469.44;5031330;28;19967;-52